sensor_id;sensor_type;location;lat;lon;timestamp;temperature;humidity
25640;DHT22;13497;48.322;16.204;2023-07-29T00:00:41;22.00;98.30
25640;DHT22;13497;48.322;16.204;2023-07-29T00:03:06;21.90;98.40
25640;DHT22;13497;48.322;16.204;2023-07-29T00:05:32;21.80;98.70
25640;DHT22;13497;48.322;16.204;2023-07-29T00:07:58;21.70;99.20
25640;DHT22;13497;48.322;16.204;2023-07-29T00:10:23;21.60;99.50
25640;DHT22;13497;48.322;16.204;2023-07-29T00:12:49;21.60;99.50
25640;DHT22;13497;48.322;16.204;2023-07-29T00:15:14;21.60;99.40
25640;DHT22;13497;48.322;16.204;2023-07-29T00:17:40;21.60;99.40
25640;DHT22;13497;48.322;16.204;2023-07-29T00:20:06;21.70;99.30
25640;DHT22;13497;48.322;16.204;2023-07-29T00:22:33;21.80;99.30
25640;DHT22;13497;48.322;16.204;2023-07-29T00:24:58;21.70;99.30
25640;DHT22;13497;48.322;16.204;2023-07-29T00:27:25;21.70;99.40
25640;DHT22;13497;48.322;16.204;2023-07-29T00:29:51;21.70;99.50
25640;DHT22;13497;48.322;16.204;2023-07-29T00:32:17;21.70;99.50
25640;DHT22;13497;48.322;16.204;2023-07-29T00:34:43;21.70;99.60
25640;DHT22;13497;48.322;16.204;2023-07-29T00:37:09;21.70;99.70
25640;DHT22;13497;48.322;16.204;2023-07-29T00:39:36;21.80;99.70
25640;DHT22;13497;48.322;16.204;2023-07-29T00:42:02;21.80;99.70
25640;DHT22;13497;48.322;16.204;2023-07-29T00:44:28;21.80;99.70
25640;DHT22;13497;48.322;16.204;2023-07-29T00:46:54;21.80;99.80
25640;DHT22;13497;48.322;16.204;2023-07-29T00:49:20;21.80;99.80
25640;DHT22;13497;48.322;16.204;2023-07-29T00:51:46;21.80;99.90
25640;DHT22;13497;48.322;16.204;2023-07-29T00:54:13;21.80;99.90
25640;DHT22;13497;48.322;16.204;2023-07-29T00:56:39;21.80;99.90
25640;DHT22;13497;48.322;16.204;2023-07-29T00:59:04;21.80;99.90
25640;DHT22;13497;48.322;16.204;2023-07-29T01:01:31;21.80;99.90
25640;DHT22;13497;48.322;16.204;2023-07-29T01:03:57;21.80;99.90
25640;DHT22;13497;48.322;16.204;2023-07-29T01:06:53;21.80;99.90
25640;DHT22;13497;48.322;16.204;2023-07-29T01:12:27;21.80;99.90
25640;DHT22;13497;48.322;16.204;2023-07-29T01:17:44;21.70;99.90
25640;DHT22;13497;48.322;16.204;2023-07-29T01:20:14;21.80;99.90
25640;DHT22;13497;48.322;16.204;2023-07-29T01:22:41;21.80;99.90
25640;DHT22;13497;48.322;16.204;2023-07-29T01:25:07;21.80;99.90
25640;DHT22;13497;48.322;16.204;2023-07-29T01:27:33;21.80;99.90
25640;DHT22;13497;48.322;16.204;2023-07-29T01:29:59;21.80;99.90
25640;DHT22;13497;48.322;16.204;2023-07-29T01:32:28;21.80;99.90
25640;DHT22;13497;48.322;16.204;2023-07-29T01:37:26;21.80;99.90
25640;DHT22;13497;48.322;16.204;2023-07-29T01:39:57;21.80;99.90
25640;DHT22;13497;48.322;16.204;2023-07-29T01:42:25;21.80;99.90
25640;DHT22;13497;48.322;16.204;2023-07-29T01:44:51;21.70;99.90
25640;DHT22;13497;48.322;16.204;2023-07-29T01:47:17;21.60;99.90
25640;DHT22;13497;48.322;16.204;2023-07-29T01:49:43;21.60;99.90
25640;DHT22;13497;48.322;16.204;2023-07-29T01:52:08;21.60;99.90
25640;DHT22;13497;48.322;16.204;2023-07-29T01:54:34;21.60;99.90
25640;DHT22;13497;48.322;16.204;2023-07-29T01:56:59;21.50;99.90
25640;DHT22;13497;48.322;16.204;2023-07-29T01:59:25;21.40;99.90
25640;DHT22;13497;48.322;16.204;2023-07-29T02:01:51;21.40;99.90
25640;DHT22;13497;48.322;16.204;2023-07-29T02:04:16;21.30;99.90
25640;DHT22;13497;48.322;16.204;2023-07-29T02:06:42;21.20;99.90
25640;DHT22;13497;48.322;16.204;2023-07-29T02:09:08;21.20;99.90
25640;DHT22;13497;48.322;16.204;2023-07-29T02:11:33;21.20;99.90
25640;DHT22;13497;48.322;16.204;2023-07-29T02:13:59;21.20;99.90
25640;DHT22;13497;48.322;16.204;2023-07-29T02:16:24;21.30;99.90
25640;DHT22;13497;48.322;16.204;2023-07-29T02:18:50;21.30;99.90
25640;DHT22;13497;48.322;16.204;2023-07-29T02:21:16;21.30;99.90
25640;DHT22;13497;48.322;16.204;2023-07-29T02:23:42;21.30;99.90
25640;DHT22;13497;48.322;16.204;2023-07-29T02:26:07;21.30;99.90
25640;DHT22;13497;48.322;16.204;2023-07-29T02:28:33;21.30;99.90
25640;DHT22;13497;48.322;16.204;2023-07-29T02:31:28;21.30;99.90
25640;DHT22;13497;48.322;16.204;2023-07-29T02:33:54;21.40;99.90
25640;DHT22;13497;48.322;16.204;2023-07-29T02:36:20;21.40;99.90
25640;DHT22;13497;48.322;16.204;2023-07-29T02:38:46;21.40;99.90
25640;DHT22;13497;48.322;16.204;2023-07-29T02:41:12;21.40;99.90
25640;DHT22;13497;48.322;16.204;2023-07-29T02:43:38;21.30;99.90
25640;DHT22;13497;48.322;16.204;2023-07-29T02:46:04;21.30;99.90
25640;DHT22;13497;48.322;16.204;2023-07-29T02:48:30;21.20;99.90
25640;DHT22;13497;48.322;16.204;2023-07-29T02:50:56;21.30;99.90
25640;DHT22;13497;48.322;16.204;2023-07-29T02:53:22;21.30;99.90
25640;DHT22;13497;48.322;16.204;2023-07-29T02:55:48;21.30;99.90
25640;DHT22;13497;48.322;16.204;2023-07-29T02:58:13;21.20;99.90
25640;DHT22;13497;48.322;16.204;2023-07-29T03:00:39;21.20;99.90
25640;DHT22;13497;48.322;16.204;2023-07-29T03:03:07;21.20;99.90
25640;DHT22;13497;48.322;16.204;2023-07-29T03:05:33;21.20;99.90
25640;DHT22;13497;48.322;16.204;2023-07-29T03:07:59;21.20;99.90
25640;DHT22;13497;48.322;16.204;2023-07-29T03:10:25;21.10;99.90
25640;DHT22;13497;48.322;16.204;2023-07-29T03:12:53;21.10;99.90
25640;DHT22;13497;48.322;16.204;2023-07-29T03:15:19;21.10;99.90
25640;DHT22;13497;48.322;16.204;2023-07-29T03:17:46;21.10;99.90
25640;DHT22;13497;48.322;16.204;2023-07-29T03:20:11;21.20;99.90
25640;DHT22;13497;48.322;16.204;2023-07-29T03:22:37;21.20;99.90
25640;DHT22;13497;48.322;16.204;2023-07-29T03:25:03;21.10;99.90
25640;DHT22;13497;48.322;16.204;2023-07-29T03:27:31;21.10;99.90
25640;DHT22;13497;48.322;16.204;2023-07-29T03:29:57;21.10;99.90
25640;DHT22;13497;48.322;16.204;2023-07-29T03:32:22;21.00;99.90
25640;DHT22;13497;48.322;16.204;2023-07-29T03:34:48;21.00;99.90
25640;DHT22;13497;48.322;16.204;2023-07-29T03:37:13;21.00;99.90
25640;DHT22;13497;48.322;16.204;2023-07-29T03:39:39;21.00;99.90
25640;DHT22;13497;48.322;16.204;2023-07-29T03:42:05;20.90;99.90
25640;DHT22;13497;48.322;16.204;2023-07-29T03:44:31;21.00;99.90
25640;DHT22;13497;48.322;16.204;2023-07-29T03:46:57;21.10;99.90
25640;DHT22;13497;48.322;16.204;2023-07-29T03:49:22;21.10;99.90
25640;DHT22;13497;48.322;16.204;2023-07-29T03:51:48;21.10;99.80
25640;DHT22;13497;48.322;16.204;2023-07-29T03:54:14;21.20;99.90
25640;DHT22;13497;48.322;16.204;2023-07-29T03:56:39;21.20;99.80
25640;DHT22;13497;48.322;16.204;2023-07-29T03:59:05;21.30;99.60
25640;DHT22;13497;48.322;16.204;2023-07-29T04:01:32;21.30;99.40
25640;DHT22;13497;48.322;16.204;2023-07-29T04:03:58;21.40;99.10
25640;DHT22;13497;48.322;16.204;2023-07-29T04:06:24;21.40;98.90
25640;DHT22;13497;48.322;16.204;2023-07-29T04:08:50;21.40;98.90
25640;DHT22;13497;48.322;16.204;2023-07-29T04:11:15;21.50;98.90
25640;DHT22;13497;48.322;16.204;2023-07-29T04:13:41;21.60;98.80
25640;DHT22;13497;48.322;16.204;2023-07-29T04:16:07;21.60;98.70
25640;DHT22;13497;48.322;16.204;2023-07-29T04:18:33;21.70;98.70
25640;DHT22;13497;48.322;16.204;2023-07-29T04:20:59;21.80;98.50
25640;DHT22;13497;48.322;16.204;2023-07-29T04:23:25;22.00;98.40
25640;DHT22;13497;48.322;16.204;2023-07-29T04:25:50;22.20;98.10
25640;DHT22;13497;48.322;16.204;2023-07-29T04:28:17;22.70;97.50
25640;DHT22;13497;48.322;16.204;2023-07-29T04:31:16;22.70;97.20
25640;DHT22;13497;48.322;16.204;2023-07-29T04:33:42;22.60;97.30
25640;DHT22;13497;48.322;16.204;2023-07-29T04:36:08;22.50;97.50
25640;DHT22;13497;48.322;16.204;2023-07-29T04:38:33;22.40;97.60
25640;DHT22;13497;48.322;16.204;2023-07-29T04:40:59;22.20;97.80
25640;DHT22;13497;48.322;16.204;2023-07-29T04:43:30;22.20;97.90
25640;DHT22;13497;48.322;16.204;2023-07-29T04:45:56;22.10;98.00
25640;DHT22;13497;48.322;16.204;2023-07-29T04:48:22;22.10;98.10
25640;DHT22;13497;48.322;16.204;2023-07-29T04:50:47;22.00;98.30
25640;DHT22;13497;48.322;16.204;2023-07-29T04:53:13;22.00;98.30
25640;DHT22;13497;48.322;16.204;2023-07-29T04:55:42;21.90;98.70
25640;DHT22;13497;48.322;16.204;2023-07-29T04:58:09;21.90;98.50
25640;DHT22;13497;48.322;16.204;2023-07-29T05:00:34;22.00;98.50
25640;DHT22;13497;48.322;16.204;2023-07-29T05:03:00;21.90;98.40
25640;DHT22;13497;48.322;16.204;2023-07-29T05:05:26;21.90;98.50
25640;DHT22;13497;48.322;16.204;2023-07-29T05:07:52;22.00;98.40
25640;DHT22;13497;48.322;16.204;2023-07-29T05:10:18;22.10;98.20
25640;DHT22;13497;48.322;16.204;2023-07-29T05:12:44;22.20;98.10
25640;DHT22;13497;48.322;16.204;2023-07-29T05:15:10;22.40;98.30
25640;DHT22;13497;48.322;16.204;2023-07-29T05:17:35;22.50;97.90
25640;DHT22;13497;48.322;16.204;2023-07-29T05:20:01;22.50;97.60
25640;DHT22;13497;48.322;16.204;2023-07-29T05:22:27;22.40;97.80
25640;DHT22;13497;48.322;16.204;2023-07-29T05:24:52;22.40;97.90
25640;DHT22;13497;48.322;16.204;2023-07-29T05:27:18;22.30;97.80
25640;DHT22;13497;48.322;16.204;2023-07-29T05:29:44;22.40;97.80
25640;DHT22;13497;48.322;16.204;2023-07-29T05:32:09;22.70;97.30
25640;DHT22;13497;48.322;16.204;2023-07-29T05:34:35;23.00;97.00
25640;DHT22;13497;48.322;16.204;2023-07-29T05:37:01;23.20;96.90
25640;DHT22;13497;48.322;16.204;2023-07-29T05:39:26;23.20;96.60
25640;DHT22;13497;48.322;16.204;2023-07-29T05:41:52;23.10;96.70
25640;DHT22;13497;48.322;16.204;2023-07-29T05:44:17;23.00;96.80
25640;DHT22;13497;48.322;16.204;2023-07-29T05:46:43;22.90;97.00
25640;DHT22;13497;48.322;16.204;2023-07-29T05:49:09;22.70;97.00
25640;DHT22;13497;48.322;16.204;2023-07-29T05:51:34;22.70;97.10
25640;DHT22;13497;48.322;16.204;2023-07-29T05:54:00;22.70;97.10
25640;DHT22;13497;48.322;16.204;2023-07-29T05:56:26;22.80;97.00
25640;DHT22;13497;48.322;16.204;2023-07-29T05:58:51;22.90;97.00
25640;DHT22;13497;48.322;16.204;2023-07-29T06:01:17;22.90;96.90
25640;DHT22;13497;48.322;16.204;2023-07-29T06:03:46;22.80;97.00
25640;DHT22;13497;48.322;16.204;2023-07-29T06:06:12;22.90;96.80
25640;DHT22;13497;48.322;16.204;2023-07-29T06:08:38;22.90;96.90
25640;DHT22;13497;48.322;16.204;2023-07-29T06:11:03;22.90;97.10
25640;DHT22;13497;48.322;16.204;2023-07-29T06:13:32;22.90;97.10
25640;DHT22;13497;48.322;16.204;2023-07-29T06:15:57;22.80;97.20
25640;DHT22;13497;48.322;16.204;2023-07-29T06:18:24;22.90;97.10
25640;DHT22;13497;48.322;16.204;2023-07-29T06:20:50;23.00;97.10
25640;DHT22;13497;48.322;16.204;2023-07-29T06:23:15;23.30;96.90
25640;DHT22;13497;48.322;16.204;2023-07-29T06:25:41;23.40;96.70
25640;DHT22;13497;48.322;16.204;2023-07-29T06:28:07;23.50;96.50
25640;DHT22;13497;48.322;16.204;2023-07-29T06:30:32;23.60;96.50
25640;DHT22;13497;48.322;16.204;2023-07-29T06:32:58;24.20;95.80
25640;DHT22;13497;48.322;16.204;2023-07-29T06:35:24;24.80;95.10
25640;DHT22;13497;48.322;16.204;2023-07-29T06:37:49;24.90;94.80
25640;DHT22;13497;48.322;16.204;2023-07-29T06:40:15;25.00;94.80
25640;DHT22;13497;48.322;16.204;2023-07-29T06:42:41;25.00;94.50
25640;DHT22;13497;48.322;16.204;2023-07-29T06:45:07;24.80;94.70
25640;DHT22;13497;48.322;16.204;2023-07-29T06:47:32;24.60;94.80
25640;DHT22;13497;48.322;16.204;2023-07-29T06:49:58;24.40;95.20
25640;DHT22;13497;48.322;16.204;2023-07-29T06:52:23;24.20;95.70
25640;DHT22;13497;48.322;16.204;2023-07-29T06:54:49;24.10;95.80
25640;DHT22;13497;48.322;16.204;2023-07-29T06:57:15;24.00;95.80
25640;DHT22;13497;48.322;16.204;2023-07-29T06:59:40;23.90;96.00
25640;DHT22;13497;48.322;16.204;2023-07-29T07:02:07;23.80;96.20
25640;DHT22;13497;48.322;16.204;2023-07-29T07:04:32;23.70;96.20
25640;DHT22;13497;48.322;16.204;2023-07-29T07:06:58;23.70;96.40
25640;DHT22;13497;48.322;16.204;2023-07-29T07:09:24;23.70;96.40
25640;DHT22;13497;48.322;16.204;2023-07-29T07:11:49;23.80;96.70
25640;DHT22;13497;48.322;16.204;2023-07-29T07:14:15;24.10;96.50
25640;DHT22;13497;48.322;16.204;2023-07-29T07:16:41;24.20;96.10
25640;DHT22;13497;48.322;16.204;2023-07-29T07:19:06;24.30;95.90
25640;DHT22;13497;48.322;16.204;2023-07-29T07:21:32;24.30;95.80
25640;DHT22;13497;48.322;16.204;2023-07-29T07:23:58;24.30;95.50
25640;DHT22;13497;48.322;16.204;2023-07-29T07:26:23;24.40;95.50
25640;DHT22;13497;48.322;16.204;2023-07-29T07:28:49;24.60;95.30
25640;DHT22;13497;48.322;16.204;2023-07-29T07:31:16;24.60;95.10
25640;DHT22;13497;48.322;16.204;2023-07-29T07:33:42;24.70;95.00
25640;DHT22;13497;48.322;16.204;2023-07-29T07:36:08;24.70;95.10
25640;DHT22;13497;48.322;16.204;2023-07-29T07:38:33;24.90;94.40
25640;DHT22;13497;48.322;16.204;2023-07-29T07:40:59;24.80;94.90
25640;DHT22;13497;48.322;16.204;2023-07-29T07:43:25;24.90;94.80
25640;DHT22;13497;48.322;16.204;2023-07-29T07:45:53;25.00;94.60
25640;DHT22;13497;48.322;16.204;2023-07-29T07:48:22;25.10;94.20
25640;DHT22;13497;48.322;16.204;2023-07-29T07:50:48;25.30;94.30
25640;DHT22;13497;48.322;16.204;2023-07-29T07:53:13;25.40;94.10
25640;DHT22;13497;48.322;16.204;2023-07-29T07:55:39;25.30;93.90
25640;DHT22;13497;48.322;16.204;2023-07-29T07:58:05;25.30;94.00
25640;DHT22;13497;48.322;16.204;2023-07-29T08:00:30;25.30;93.70
25640;DHT22;13497;48.322;16.204;2023-07-29T08:02:56;25.30;93.80
25640;DHT22;13497;48.322;16.204;2023-07-29T08:05:21;25.40;93.50
25640;DHT22;13497;48.322;16.204;2023-07-29T08:07:47;25.50;93.90
25640;DHT22;13497;48.322;16.204;2023-07-29T08:10:13;25.40;93.40
25640;DHT22;13497;48.322;16.204;2023-07-29T08:12:38;25.40;93.70
25640;DHT22;13497;48.322;16.204;2023-07-29T08:15:05;25.50;93.40
25640;DHT22;13497;48.322;16.204;2023-07-29T08:17:31;25.50;93.60
25640;DHT22;13497;48.322;16.204;2023-07-29T08:19:56;25.60;93.60
25640;DHT22;13497;48.322;16.204;2023-07-29T08:22:22;25.70;93.50
25640;DHT22;13497;48.322;16.204;2023-07-29T08:24:47;25.70;93.30
25640;DHT22;13497;48.322;16.204;2023-07-29T08:27:13;25.90;93.20
25640;DHT22;13497;48.322;16.204;2023-07-29T08:29:39;26.10;93.00
25640;DHT22;13497;48.322;16.204;2023-07-29T08:32:04;26.20;92.90
25640;DHT22;13497;48.322;16.204;2023-07-29T08:34:30;26.10;92.50
25640;DHT22;13497;48.322;16.204;2023-07-29T08:36:56;26.00;92.90
25640;DHT22;13497;48.322;16.204;2023-07-29T08:39:21;25.90;93.10
25640;DHT22;13497;48.322;16.204;2023-07-29T08:44:20;25.90;92.80
25640;DHT22;13497;48.322;16.204;2023-07-29T08:46:48;26.00;93.00
25640;DHT22;13497;48.322;16.204;2023-07-29T08:49:14;26.10;93.40
25640;DHT22;13497;48.322;16.204;2023-07-29T08:51:42;26.10;93.00
25640;DHT22;13497;48.322;16.204;2023-07-29T08:54:10;26.20;92.80
25640;DHT22;13497;48.322;16.204;2023-07-29T08:56:36;26.20;92.60
25640;DHT22;13497;48.322;16.204;2023-07-29T08:59:03;26.40;92.30
25640;DHT22;13497;48.322;16.204;2023-07-29T09:01:30;26.30;92.20
25640;DHT22;13497;48.322;16.204;2023-07-29T09:03:56;26.50;92.10
25640;DHT22;13497;48.322;16.204;2023-07-29T09:06:22;26.60;92.30
25640;DHT22;13497;48.322;16.204;2023-07-29T09:08:50;26.80;92.30
25640;DHT22;13497;48.322;16.204;2023-07-29T09:11:16;26.90;91.70
25640;DHT22;13497;48.322;16.204;2023-07-29T09:13:43;26.90;91.90
25640;DHT22;13497;48.322;16.204;2023-07-29T09:16:09;27.00;91.70
25640;DHT22;13497;48.322;16.204;2023-07-29T09:18:35;27.10;91.30
25640;DHT22;13497;48.322;16.204;2023-07-29T09:21:00;27.20;91.10
25640;DHT22;13497;48.322;16.204;2023-07-29T09:23:27;27.10;91.20
25640;DHT22;13497;48.322;16.204;2023-07-29T09:26:02;27.10;91.30
25640;DHT22;13497;48.322;16.204;2023-07-29T09:28:41;27.20;91.00
25640;DHT22;13497;48.322;16.204;2023-07-29T09:31:07;27.40;91.10
25640;DHT22;13497;48.322;16.204;2023-07-29T09:33:43;27.50;90.70
25640;DHT22;13497;48.322;16.204;2023-07-29T09:36:09;27.60;90.50
25640;DHT22;13497;48.322;16.204;2023-07-29T09:38:35;27.80;90.60
25640;DHT22;13497;48.322;16.204;2023-07-29T09:41:01;27.90;89.70
25640;DHT22;13497;48.322;16.204;2023-07-29T09:43:31;27.90;89.80
25640;DHT22;13497;48.322;16.204;2023-07-29T09:46:04;28.00;90.10
25640;DHT22;13497;48.322;16.204;2023-07-29T09:48:35;28.10;90.10
25640;DHT22;13497;48.322;16.204;2023-07-29T09:51:13;28.10;90.40
25640;DHT22;13497;48.322;16.204;2023-07-29T09:53:49;28.20;89.60
25640;DHT22;13497;48.322;16.204;2023-07-29T09:56:15;28.30;89.00
25640;DHT22;13497;48.322;16.204;2023-07-29T09:58:44;28.30;88.90
25640;DHT22;13497;48.322;16.204;2023-07-29T10:01:11;28.30;88.40
25640;DHT22;13497;48.322;16.204;2023-07-29T10:03:37;28.40;89.30
25640;DHT22;13497;48.322;16.204;2023-07-29T10:06:05;28.30;88.90
25640;DHT22;13497;48.322;16.204;2023-07-29T10:08:31;28.40;88.70
25640;DHT22;13497;48.322;16.204;2023-07-29T10:11:07;28.40;88.80
25640;DHT22;13497;48.322;16.204;2023-07-29T10:13:34;28.60;88.20
25640;DHT22;13497;48.322;16.204;2023-07-29T10:16:00;28.60;86.40
25640;DHT22;13497;48.322;16.204;2023-07-29T10:18:29;28.70;86.90
25640;DHT22;13497;48.322;16.204;2023-07-29T10:20:57;28.40;86.10
25640;DHT22;13497;48.322;16.204;2023-07-29T10:23:24;28.40;87.00
25640;DHT22;13497;48.322;16.204;2023-07-29T10:28:26;28.60;86.20
25640;DHT22;13497;48.322;16.204;2023-07-29T10:30:54;28.90;86.20
25640;DHT22;13497;48.322;16.204;2023-07-29T10:33:21;28.90;84.70
25640;DHT22;13497;48.322;16.204;2023-07-29T10:35:46;28.80;85.00
25640;DHT22;13497;48.322;16.204;2023-07-29T10:38:12;28.80;84.50
25640;DHT22;13497;48.322;16.204;2023-07-29T10:40:49;28.80;84.60
25640;DHT22;13497;48.322;16.204;2023-07-29T10:43:23;28.80;84.70
25640;DHT22;13497;48.322;16.204;2023-07-29T10:45:49;28.80;83.50
25640;DHT22;13497;48.322;16.204;2023-07-29T10:51:25;28.70;83.50
25640;DHT22;13497;48.322;16.204;2023-07-29T10:54:00;28.80;84.20
25640;DHT22;13497;48.322;16.204;2023-07-29T10:56:33;28.90;83.50
25640;DHT22;13497;48.322;16.204;2023-07-29T11:17:46;29.70;79.40
25640;DHT22;13497;48.322;16.204;2023-07-29T11:20:13;29.90;78.80
25640;DHT22;13497;48.322;16.204;2023-07-29T11:22:40;30.10;77.90
25640;DHT22;13497;48.322;16.204;2023-07-29T11:25:10;30.40;77.90
25640;DHT22;13497;48.322;16.204;2023-07-29T11:27:37;30.40;78.10
25640;DHT22;13497;48.322;16.204;2023-07-29T11:30:08;30.30;76.60
25640;DHT22;13497;48.322;16.204;2023-07-29T11:32:35;30.10;77.30
25640;DHT22;13497;48.322;16.204;2023-07-29T11:35:04;30.30;77.10
25640;DHT22;13497;48.322;16.204;2023-07-29T11:37:35;30.50;78.10
25640;DHT22;13497;48.322;16.204;2023-07-29T11:40:02;30.80;77.00
25640;DHT22;13497;48.322;16.204;2023-07-29T11:42:28;31.00;76.60
25640;DHT22;13497;48.322;16.204;2023-07-29T11:44:57;31.00;75.80
25640;DHT22;13497;48.322;16.204;2023-07-29T11:47:24;31.00;75.60
25640;DHT22;13497;48.322;16.204;2023-07-29T11:49:49;30.90;75.90
25640;DHT22;13497;48.322;16.204;2023-07-29T11:52:15;30.80;76.80
25640;DHT22;13497;48.322;16.204;2023-07-29T11:54:46;30.80;75.90
25640;DHT22;13497;48.322;16.204;2023-07-29T11:57:12;30.70;76.50
25640;DHT22;13497;48.322;16.204;2023-07-29T11:59:39;30.60;75.90
25640;DHT22;13497;48.322;16.204;2023-07-29T12:02:13;30.50;76.70
25640;DHT22;13497;48.322;16.204;2023-07-29T12:04:40;30.30;76.40
25640;DHT22;13497;48.322;16.204;2023-07-29T12:07:07;30.60;77.10
25640;DHT22;13497;48.322;16.204;2023-07-29T12:09:34;30.70;76.70
25640;DHT22;13497;48.322;16.204;2023-07-29T12:12:01;30.80;76.90
25640;DHT22;13497;48.322;16.204;2023-07-29T12:14:28;30.80;77.20
25640;DHT22;13497;48.322;16.204;2023-07-29T12:16:54;31.00;77.10
25640;DHT22;13497;48.322;16.204;2023-07-29T12:19:20;31.10;76.30
25640;DHT22;13497;48.322;16.204;2023-07-29T12:21:48;31.50;75.40
25640;DHT22;13497;48.322;16.204;2023-07-29T12:24:14;31.70;75.10
25640;DHT22;13497;48.322;16.204;2023-07-29T12:26:41;31.70;75.50
25640;DHT22;13497;48.322;16.204;2023-07-29T12:29:14;31.80;75.90
25640;DHT22;13497;48.322;16.204;2023-07-29T12:31:40;32.00;75.80
25640;DHT22;13497;48.322;16.204;2023-07-29T12:34:05;31.60;75.00
25640;DHT22;13497;48.322;16.204;2023-07-29T12:36:45;31.20;75.10
25640;DHT22;13497;48.322;16.204;2023-07-29T12:39:35;30.80;77.40
25640;DHT22;13497;48.322;16.204;2023-07-29T12:42:05;30.40;79.80
25640;DHT22;13497;48.322;16.204;2023-07-29T12:44:33;30.10;81.60
25640;DHT22;13497;48.322;16.204;2023-07-29T12:47:01;30.10;81.90
25640;DHT22;13497;48.322;16.204;2023-07-29T12:49:31;30.10;81.10
25640;DHT22;13497;48.322;16.204;2023-07-29T12:51:57;30.30;81.70
25640;DHT22;13497;48.322;16.204;2023-07-29T12:54:23;30.40;80.70
25640;DHT22;13497;48.322;16.204;2023-07-29T12:56:49;30.40;82.50
25640;DHT22;13497;48.322;16.204;2023-07-29T12:59:14;30.30;82.40
25640;DHT22;13497;48.322;16.204;2023-07-29T13:01:40;30.40;82.70
25640;DHT22;13497;48.322;16.204;2023-07-29T13:04:06;30.40;82.70
25640;DHT22;13497;48.322;16.204;2023-07-29T13:06:32;30.60;82.90
25640;DHT22;13497;48.322;16.204;2023-07-29T13:08:57;30.60;79.30
25640;DHT22;13497;48.322;16.204;2023-07-29T13:11:23;30.40;75.50
25640;DHT22;13497;48.322;16.204;2023-07-29T13:13:49;30.20;74.10
25640;DHT22;13497;48.322;16.204;2023-07-29T13:16:15;29.70;74.90
25640;DHT22;13497;48.322;16.204;2023-07-29T13:18:40;29.40;75.90
25640;DHT22;13497;48.322;16.204;2023-07-29T13:21:06;29.30;75.90
25640;DHT22;13497;48.322;16.204;2023-07-29T13:23:32;29.10;76.30
25640;DHT22;13497;48.322;16.204;2023-07-29T13:25:57;29.10;77.40
25640;DHT22;13497;48.322;16.204;2023-07-29T13:28:23;29.00;78.10
25640;DHT22;13497;48.322;16.204;2023-07-29T13:30:49;29.20;78.20
25640;DHT22;13497;48.322;16.204;2023-07-29T13:33:15;29.20;78.50
25640;DHT22;13497;48.322;16.204;2023-07-29T13:35:40;29.20;78.30
25640;DHT22;13497;48.322;16.204;2023-07-29T13:38:06;29.00;78.70
25640;DHT22;13497;48.322;16.204;2023-07-29T13:40:32;28.80;79.00
25640;DHT22;13497;48.322;16.204;2023-07-29T13:42:57;28.90;80.20
25640;DHT22;13497;48.322;16.204;2023-07-29T13:45:23;28.90;79.40
25640;DHT22;13497;48.322;16.204;2023-07-29T13:47:49;29.20;79.10
25640;DHT22;13497;48.322;16.204;2023-07-29T13:50:16;29.30;79.20
25640;DHT22;13497;48.322;16.204;2023-07-29T13:52:41;29.40;78.90
25640;DHT22;13497;48.322;16.204;2023-07-29T13:55:07;29.60;79.10
25640;DHT22;13497;48.322;16.204;2023-07-29T13:57:33;29.80;78.90
25640;DHT22;13497;48.322;16.204;2023-07-29T13:59:58;29.80;77.80
25640;DHT22;13497;48.322;16.204;2023-07-29T14:02:24;29.70;77.50
25640;DHT22;13497;48.322;16.204;2023-07-29T14:04:52;29.90;76.90
25640;DHT22;13497;48.322;16.204;2023-07-29T14:07:18;29.90;77.00
25640;DHT22;13497;48.322;16.204;2023-07-29T14:09:43;29.70;78.00
25640;DHT22;13497;48.322;16.204;2023-07-29T14:12:09;29.60;77.20
25640;DHT22;13497;48.322;16.204;2023-07-29T14:14:40;29.80;77.20
25640;DHT22;13497;48.322;16.204;2023-07-29T14:17:06;30.00;77.80
25640;DHT22;13497;48.322;16.204;2023-07-29T14:19:33;30.40;76.70
25640;DHT22;13497;48.322;16.204;2023-07-29T14:21:59;30.40;76.80
25640;DHT22;13497;48.322;16.204;2023-07-29T14:24:25;30.20;77.50
25640;DHT22;13497;48.322;16.204;2023-07-29T14:26:51;30.00;77.30
25640;DHT22;13497;48.322;16.204;2023-07-29T14:29:16;30.10;78.10
25640;DHT22;13497;48.322;16.204;2023-07-29T14:31:42;30.00;78.00
25640;DHT22;13497;48.322;16.204;2023-07-29T14:34:07;29.90;77.90
25640;DHT22;13497;48.322;16.204;2023-07-29T14:36:33;29.60;78.00
25640;DHT22;13497;48.322;16.204;2023-07-29T14:38:58;29.50;78.40
25640;DHT22;13497;48.322;16.204;2023-07-29T14:41:24;29.60;78.00
25640;DHT22;13497;48.322;16.204;2023-07-29T14:43:50;29.50;77.60
25640;DHT22;13497;48.322;16.204;2023-07-29T14:46:15;29.40;76.80
25640;DHT22;13497;48.322;16.204;2023-07-29T14:48:41;29.30;77.40
25640;DHT22;13497;48.322;16.204;2023-07-29T14:51:06;29.30;77.80
25640;DHT22;13497;48.322;16.204;2023-07-29T14:53:32;29.30;78.30
25640;DHT22;13497;48.322;16.204;2023-07-29T14:55:58;29.40;78.30
25640;DHT22;13497;48.322;16.204;2023-07-29T14:58:23;29.60;78.40
25640;DHT22;13497;48.322;16.204;2023-07-29T15:00:51;29.80;78.10
25640;DHT22;13497;48.322;16.204;2023-07-29T15:03:17;29.60;78.40
25640;DHT22;13497;48.322;16.204;2023-07-29T15:05:42;29.50;78.60
25640;DHT22;13497;48.322;16.204;2023-07-29T15:08:09;29.40;79.00
25640;DHT22;13497;48.322;16.204;2023-07-29T15:10:34;29.40;78.80
25640;DHT22;13497;48.322;16.204;2023-07-29T15:13:00;29.40;79.30
25640;DHT22;13497;48.322;16.204;2023-07-29T15:15:26;29.40;78.90
25640;DHT22;13497;48.322;16.204;2023-07-29T15:17:51;29.30;78.90
25640;DHT22;13497;48.322;16.204;2023-07-29T15:20:17;29.30;78.40
25640;DHT22;13497;48.322;16.204;2023-07-29T15:22:43;29.20;78.70
25640;DHT22;13497;48.322;16.204;2023-07-29T15:25:09;29.20;79.30
25640;DHT22;13497;48.322;16.204;2023-07-29T15:27:35;29.20;79.80
25640;DHT22;13497;48.322;16.204;2023-07-29T15:30:01;29.30;80.00
25640;DHT22;13497;48.322;16.204;2023-07-29T15:32:26;29.40;79.90
25640;DHT22;13497;48.322;16.204;2023-07-29T15:34:53;29.40;80.20
25640;DHT22;13497;48.322;16.204;2023-07-29T15:37:19;29.50;80.60
25640;DHT22;13497;48.322;16.204;2023-07-29T15:39:44;29.50;81.20
25640;DHT22;13497;48.322;16.204;2023-07-29T15:42:10;29.60;80.50
25640;DHT22;13497;48.322;16.204;2023-07-29T15:44:36;29.60;80.70
25640;DHT22;13497;48.322;16.204;2023-07-29T15:47:03;29.50;81.20